Time;durP1;ratioP1;P1;durP2;ratioP2;P2;SDS_P1;SDS_P2;PMS_P1;PMS_P2;Temp;Humidity;BMP_temperature;BMP_pressure;BME280_temperature;BME280_humidity;BME280_pressure;Samples;Min_cycle;Max_cycle;Signal;HPM_P1;HPM_P2
2021/12/22 00:01:05;;;;;;;26.42;14.43;;;;;;;;;;5124576;27;20111;-77
2021/12/22 00:03:31;;;;;;;23.40;14.32;;;;;;;;;;5103013;28;20043;-78
2021/12/22 00:05:57;;;;;;;27.23;15.00;;;;;;;;;;5112811;28;20381;-78
2021/12/22 00:08:25;;;;;;;27.70;15.75;;;;;;;;;;5116285;27;20392;-77
2021/12/22 00:10:51;;;;;;;27.42;16.13;;;;;;;;;;5098993;28;20057;-77
2021/12/22 00:13:18;;;;;;;29.10;15.57;;;;;;;;;;5100577;28;20089;-77
2021/12/22 00:15:44;;;;;;;28.63;15.80;;;;;;;;;;5115889;27;20039;-78
2021/12/22 00:18:10;;;;;;;25.70;15.88;;;;;;;;;;5124262;27;20123;-77
2021/12/22 00:20:37;;;;;;;29.77;15.45;;;;;;;;;;5085257;28;20128;-78
2021/12/22 00:23:03;;;;;;;28.42;16.27;;;;;;;;;;5116740;28;20039;-77
2021/12/22 00:25:29;;;;;;;27.02;15.68;;;;;;;;;;5115730;28;20107;-78
2021/12/22 00:27:57;;;;;;;25.13;15.57;;;;;;;;;;5095228;28;20385;-77
2021/12/22 00:30:24;;;;;;;25.73;15.35;;;;;;;;;;5094791;28;20093;-77
2021/12/22 00:32:53;;;;;;;25.77;16.10;;;;;;;;;;5096597;28;20097;-78
2021/12/22 00:35:21;;;;;;;27.35;15.85;;;;;;;;;;5101770;28;20089;-77
2021/12/22 00:37:47;;;;;;;25.88;15.48;;;;;;;;;;5094544;28;20101;-77
2021/12/22 00:40:13;;;;;;;25.75;15.65;;;;;;;;;;5096459;28;20043;-78
2021/12/22 00:42:39;;;;;;;25.35;15.23;;;;;;;;;;5114737;28;20044;-77
2021/12/22 00:45:06;;;;;;;25.30;14.90;;;;;;;;;;5107680;28;20400;-77
2021/12/22 00:47:32;;;;;;;28.95;16.25;;;;;;;;;;5095109;28;20044;-77
2021/12/22 00:49:59;;;;;;;25.02;15.73;;;;;;;;;;5101281;28;20039;-77
2021/12/22 00:52:26;;;;;;;28.05;16.25;;;;;;;;;;5099658;28;20059;-78
2021/12/22 00:54:52;;;;;;;29.73;16.33;;;;;;;;;;5097479;28;20114;-77
2021/12/22 00:57:18;;;;;;;27.17;16.05;;;;;;;;;;5104573;28;20047;-78
2021/12/22 00:59:45;;;;;;;26.42;15.75;;;;;;;;;;5115962;28;20040;-77
2021/12/22 01:02:13;;;;;;;27.67;16.38;;;;;;;;;;5100935;28;20085;-77
2021/12/22 01:04:39;;;;;;;25.33;16.15;;;;;;;;;;5095281;28;20051;-77
2021/12/22 01:07:06;;;;;;;27.67;16.70;;;;;;;;;;5108008;28;20085;-77
2021/12/22 01:09:33;;;;;;;26.60;16.48;;;;;;;;;;5102431;28;20055;-77
2021/12/22 01:11:59;;;;;;;29.00;16.83;;;;;;;;;;5107241;28;20040;-77
2021/12/22 01:14:25;;;;;;;30.92;16.95;;;;;;;;;;5093703;28;20397;-77
2021/12/22 01:16:55;;;;;;;28.98;17.08;;;;;;;;;;5095945;28;20036;-77
2021/12/22 01:19:29;;;;;;;31.00;17.50;;;;;;;;;;5109060;28;20047;-77
2021/12/22 01:22:04;;;;;;;31.30;16.80;;;;;;;;;;5120034;27;20043;-77
2021/12/22 01:24:34;;;;;;;27.80;16.52;;;;;;;;;;5088226;28;20100;-77
2021/12/22 01:27:07;;;;;;;27.25;16.52;;;;;;;;;;5110852;27;20391;-77
2021/12/22 01:29:34;;;;;;;28.52;16.83;;;;;;;;;;5101894;28;20044;-77
2021/12/22 01:32:01;;;;;;;26.13;16.73;;;;;;;;;;5115029;28;20043;-77
2021/12/22 01:34:27;;;;;;;27.95;17.17;;;;;;;;;;5097618;28;20067;-77
2021/12/22 01:36:53;;;;;;;26.70;16.77;;;;;;;;;;5114898;28;20050;-77
2021/12/22 01:39:20;;;;;;;28.88;16.50;;;;;;;;;;5096652;28;20044;-77
2021/12/22 01:41:46;;;;;;;29.17;17.85;;;;;;;;;;5120180;27;20118;-77
2021/12/22 01:44:23;;;;;;;28.75;17.70;;;;;;;;;;5134635;27;20396;-77
2021/12/22 01:49:42;;;;;;;29.38;16.25;;;;;;;;;;5123200;27;20126;-78
2021/12/22 01:52:08;;;;;;;27.35;17.20;;;;;;;;;;5112728;27;20042;-77
2021/12/22 01:54:40;;;;;;;30.27;17.27;;;;;;;;;;5096979;28;20047;-77
2021/12/22 01:57:11;;;;;;;28.17;16.65;;;;;;;;;;5114456;28;20047;-78
2021/12/22 01:59:38;;;;;;;29.35;16.92;;;;;;;;;;5116333;27;20484;-78
2021/12/22 02:02:06;;;;;;;29.02;16.23;;;;;;;;;;5119681;27;20648;-77
2021/12/22 02:04:32;;;;;;;30.25;16.48;;;;;;;;;;5116080;27;20050;-77
2021/12/22 02:06:58;;;;;;;31.88;17.83;;;;;;;;;;5128123;27;20048;-77
2021/12/22 02:09:45;;;;;;;27.13;17.38;;;;;;;;;;5096719;28;20050;-77
2021/12/22 02:12:13;;;;;;;29.73;17.77;;;;;;;;;;5113696;27;20049;-77
2021/12/22 02:14:43;;;;;;;28.23;16.88;;;;;;;;;;5134956;27;20054;-78
2021/12/22 02:17:11;;;;;;;28.20;17.23;;;;;;;;;;5126490;27;20039;-77
2021/12/22 02:19:38;;;;;;;31.42;18.13;;;;;;;;;;5096253;28;20047;-77
2021/12/22 02:22:09;;;;;;;29.95;17.95;;;;;;;;;;5121422;27;20050;-77
2021/12/22 02:24:36;;;;;;;27.95;16.77;;;;;;;;;;5113421;28;20039;-76
2021/12/22 02:27:07;;;;;;;30.00;16.63;;;;;;;;;;5113565;27;20494;-77
2021/12/22 02:29:36;;;;;;;29.92;17.60;;;;;;;;;;5120988;27;20551;-77
2021/12/22 02:32:11;;;;;;;27.77;17.00;;;;;;;;;;5133466;27;20420;-78
2021/12/22 02:34:46;;;;;;;27.98;17.13;;;;;;;;;;5107146;27;20511;-79
2021/12/22 02:37:15;;;;;;;25.95;15.98;;;;;;;;;;5132950;27;20122;-79
2021/12/22 02:39:50;;;;;;;28.33;17.10;;;;;;;;;;5098339;27;20047;-77
2021/12/22 02:42:20;;;;;;;33.50;18.23;;;;;;;;;;5123903;27;20043;-79
2021/12/22 02:44:46;;;;;;;33.17;17.27;;;;;;;;;;5113684;28;20043;-79
2021/12/22 02:47:17;;;;;;;30.52;17.67;;;;;;;;;;5099301;27;20477;-78
2021/12/22 02:49:43;;;;;;;30.30;16.63;;;;;;;;;;5125577;27;20088;-76
2021/12/22 02:52:09;;;;;;;31.65;18.38;;;;;;;;;;5116708;27;20522;-78
2021/12/22 02:54:42;;;;;;;33.65;18.08;;;;;;;;;;5096857;27;20075;-76
2021/12/22 02:57:22;;;;;;;32.20;18.35;;;;;;;;;;5129842;27;20039;-76
2021/12/22 03:02:42;;;;;;;29.75;18.38;;;;;;;;;;5113447;28;20477;-77
2021/12/22 03:05:11;;;;;;;32.80;19.65;;;;;;;;;;5117355;27;20165;-77
2021/12/22 03:07:39;;;;;;;33.60;19.33;;;;;;;;;;5118084;27;20078;-77
2021/12/22 03:10:07;;;;;;;35.13;18.73;;;;;;;;;;5113545;28;20089;-77
2021/12/22 03:12:35;;;;;;;35.65;19.05;;;;;;;;;;5094944;28;20044;-76
2021/12/22 03:15:04;;;;;;;32.42;18.17;;;;;;;;;;5113032;28;20467;-77
2021/12/22 03:17:30;;;;;;;34.78;18.95;;;;;;;;;;5108109;28;20055;-77
2021/12/22 03:19:56;;;;;;;33.90;17.88;;;;;;;;;;5119809;27;20035;-77
2021/12/22 03:22:23;;;;;;;33.20;18.58;;;;;;;;;;5131562;27;20505;-77
2021/12/22 03:24:51;;;;;;;32.75;18.38;;;;;;;;;;5103535;27;20099;-77
2021/12/22 03:27:17;;;;;;;35.00;19.23;;;;;;;;;;5109686;27;20058;-77
2021/12/22 03:29:43;;;;;;;32.85;18.27;;;;;;;;;;5114472;27;20130;-78
2021/12/22 03:32:10;;;;;;;33.80;18.77;;;;;;;;;;5132283;27;20050;-77
2021/12/22 03:34:37;;;;;;;31.70;18.48;;;;;;;;;;5095016;28;20041;-77
2021/12/22 03:37:04;;;;;;;31.42;18.48;;;;;;;;;;5112645;28;20403;-77
2021/12/22 03:39:30;;;;;;;34.03;19.08;;;;;;;;;;5115576;28;20045;-78
2021/12/22 03:41:56;;;;;;;30.98;18.27;;;;;;;;;;5107946;28;20428;-77
2021/12/22 03:44:23;;;;;;;31.75;18.63;;;;;;;;;;5104783;28;20039;-77
2021/12/22 03:46:50;;;;;;;33.72;18.33;;;;;;;;;;5112886;28;20054;-79
2021/12/22 03:49:17;;;;;;;28.73;17.70;;;;;;;;;;5117783;28;20100;-78
2021/12/22 03:51:43;;;;;;;31.25;17.92;;;;;;;;;;5112519;28;20079;-76
2021/12/22 03:54:11;;;;;;;32.35;18.50;;;;;;;;;;5117485;28;20039;-79
2021/12/22 03:56:37;;;;;;;29.85;17.60;;;;;;;;;;5097242;28;20036;-79
2021/12/22 03:59:03;;;;;;;32.42;18.25;;;;;;;;;;5133301;28;20054;-79
2021/12/22 04:01:30;;;;;;;30.90;18.13;;;;;;;;;;5132548;28;20046;-77
2021/12/22 04:04:00;;;;;;;32.28;17.83;;;;;;;;;;5124098;28;20043;-78
2021/12/22 04:06:26;;;;;;;32.50;18.03;;;;;;;;;;5130023;28;20054;-79
2021/12/22 04:08:52;;;;;;;30.02;16.73;;;;;;;;;;5115213;28;20039;-78
2021/12/22 04:11:19;;;;;;;31.02;17.77;;;;;;;;;;5131171;28;20491;-77
2021/12/22 04:13:45;;;;;;;33.13;18.33;;;;;;;;;;5122413;28;20113;-77
2021/12/22 04:16:11;;;;;;;31.48;17.80;;;;;;;;;;5112687;28;20408;-78
2021/12/22 04:18:37;;;;;;;30.38;17.83;;;;;;;;;;5115836;28;20043;-78
2021/12/22 04:21:03;;;;;;;28.88;17.52;;;;;;;;;;5119647;28;20062;-76
2021/12/22 04:23:29;;;;;;;31.75;17.52;;;;;;;;;;5094053;28;20078;-78
2021/12/22 04:25:56;;;;;;;30.88;17.80;;;;;;;;;;5116957;28;20131;-78
2021/12/22 04:28:22;;;;;;;31.90;17.35;;;;;;;;;;5132092;28;20047;-78
2021/12/22 04:30:50;;;;;;;34.35;17.98;;;;;;;;;;5114159;28;20045;-77
2021/12/22 04:33:17;;;;;;;31.38;17.55;;;;;;;;;;5101289;28;20062;-77
2021/12/22 04:35:44;;;;;;;29.27;17.40;;;;;;;;;;5112795;28;20122;-77
2021/12/22 04:38:10;;;;;;;29.58;17.88;;;;;;;;;;5102635;28;20062;-79
2021/12/22 04:40:36;;;;;;;32.22;17.42;;;;;;;;;;5127150;28;20043;-76
2021/12/22 04:43:02;;;;;;;31.08;18.42;;;;;;;;;;5110603;28;20055;-77
2021/12/22 04:45:29;;;;;;;30.45;17.98;;;;;;;;;;5116209;28;20126;-77
2021/12/22 04:47:56;;;;;;;31.15;18.52;;;;;;;;;;5110723;28;20472;-77
2021/12/22 04:50:22;;;;;;;30.80;17.58;;;;;;;;;;5119074;27;20067;-77
2021/12/22 04:52:57;;;;;;;28.88;17.90;;;;;;;;;;5126273;27;20395;-77
2021/12/22 04:55:25;;;;;;;31.90;18.30;;;;;;;;;;5116656;27;20442;-77
2021/12/22 04:57:52;;;;;;;34.92;17.80;;;;;;;;;;5097761;28;20143;-77
2021/12/22 05:00:19;;;;;;;32.17;18.00;;;;;;;;;;5120244;27;20693;-77
2021/12/22 05:02:45;;;;;;;32.50;17.65;;;;;;;;;;5115656;27;20036;-77
2021/12/22 05:05:12;;;;;;;31.52;17.42;;;;;;;;;;5129006;27;20460;-77
2021/12/22 05:07:38;;;;;;;31.73;17.90;;;;;;;;;;5122560;27;20118;-77
2021/12/22 05:10:07;;;;;;;31.35;18.30;;;;;;;;;;5136272;27;20499;-79
2021/12/22 05:12:34;;;;;;;31.85;17.90;;;;;;;;;;5116822;27;20047;-78
2021/12/22 05:15:00;;;;;;;32.15;17.88;;;;;;;;;;5115809;28;20082;-78
2021/12/22 05:20:11;;;;;;;33.55;19.50;;;;;;;;;;5124260;27;20683;-78
2021/12/22 05:22:37;;;;;;;31.67;17.58;;;;;;;;;;5133328;27;20066;-77
2021/12/22 05:25:04;;;;;;;30.42;17.95;;;;;;;;;;5122723;27;20108;-79
2021/12/22 05:27:31;;;;;;;35.63;18.35;;;;;;;;;;5122838;27;20037;-78
2021/12/22 05:29:57;;;;;;;30.38;17.30;;;;;;;;;;5115460;27;20037;-79
2021/12/22 05:32:30;;;;;;;31.58;17.45;;;;;;;;;;5118184;27;20035;-77
2021/12/22 05:34:56;;;;;;;32.90;18.70;;;;;;;;;;5128207;27;20524;-77
2021/12/22 05:37:22;;;;;;;36.33;18.42;;;;;;;;;;5131103;27;20099;-77
2021/12/22 05:39:48;;;;;;;33.63;18.40;;;;;;;;;;5113364;28;20079;-77
2021/12/22 05:42:15;;;;;;;33.70;17.92;;;;;;;;;;5118260;27;20488;-77
2021/12/22 05:44:42;;;;;;;32.08;18.02;;;;;;;;;;5096341;28;20089;-78
2021/12/22 05:47:08;;;;;;;32.58;17.35;;;;;;;;;;5097812;27;20168;-78
2021/12/22 05:49:34;;;;;;;32.40;17.02;;;;;;;;;;5132766;27;20035;-77
2021/12/22 05:52:00;;;;;;;33.47;17.60;;;;;;;;;;5111158;28;20465;-78
2021/12/22 05:54:26;;;;;;;35.30;17.73;;;;;;;;;;5114922;28;20127;-78
2021/12/22 05:56:53;;;;;;;30.63;17.60;;;;;;;;;;5079550;28;20039;-77
2021/12/22 05:59:19;;;;;;;33.05;17.30;;;;;;;;;;5099431;28;20508;-79
2021/12/22 06:01:45;;;;;;;35.05;19.13;;;;;;;;;;5113616;27;20043;-77
2021/12/22 06:04:11;;;;;;;33.53;19.05;;;;;;;;;;5123876;27;20039;-77
2021/12/22 06:06:37;;;;;;;38.25;18.80;;;;;;;;;;5133281;27;20373;-78
2021/12/22 06:09:03;;;;;;;29.63;17.92;;;;;;;;;;5128949;27;20036;-80
2021/12/22 06:11:30;;;;;;;33.95;18.63;;;;;;;;;;5114439;27;20489;-78
2021/12/22 06:13:57;;;;;;;32.92;17.05;;;;;;;;;;5112702;27;20051;-78
2021/12/22 06:16:23;;;;;;;32.70;17.50;;;;;;;;;;5134212;27;20039;-77
2021/12/22 06:18:56;;;;;;;36.40;19.40;;;;;;;;;;5133473;27;20039;-76
2021/12/22 06:21:22;;;;;;;35.83;17.88;;;;;;;;;;5134171;27;20071;-78
2021/12/22 06:23:48;;;;;;;37.70;18.77;;;;;;;;;;5111603;28;20536;-78
2021/12/22 06:26:14;;;;;;;33.10;18.05;;;;;;;;;;5099567;27;20046;-77
2021/12/22 06:28:40;;;;;;;38.90;19.00;;;;;;;;;;5112661;28;20507;-77
2021/12/22 06:31:06;;;;;;;35.60;18.50;;;;;;;;;;5095711;27;20040;-77
2021/12/22 06:33:33;;;;;;;32.95;18.25;;;;;;;;;;5119179;27;20074;-77
2021/12/22 06:35:59;;;;;;;33.80;17.75;;;;;;;;;;5134832;27;20391;-77
2021/12/22 06:38:25;;;;;;;36.17;18.27;;;;;;;;;;5133830;27;20038;-77
2021/12/22 06:40:52;;;;;;;34.00;18.20;;;;;;;;;;5120008;27;20476;-78
2021/12/22 06:43:18;;;;;;;32.22;18.05;;;;;;;;;;5095207;28;20050;-78
2021/12/22 06:45:44;;;;;;;32.13;17.95;;;;;;;;;;5114114;27;20043;-77
2021/12/22 06:48:10;;;;;;;32.22;18.00;;;;;;;;;;5110136;28;20039;-76
2021/12/22 06:50:36;;;;;;;33.80;17.33;;;;;;;;;;5107161;28;20054;-77
2021/12/22 06:53:03;;;;;;;31.55;16.80;;;;;;;;;;5095261;28;20142;-77
2021/12/22 06:55:29;;;;;;;31.83;17.02;;;;;;;;;;5123972;27;20050;-77
2021/12/22 06:57:56;;;;;;;31.52;17.20;;;;;;;;;;5094480;27;20036;-78
2021/12/22 07:00:22;;;;;;;30.98;16.83;;;;;;;;;;5123121;27;20127;-78
2021/12/22 07:02:48;;;;;;;28.92;17.40;;;;;;;;;;5126221;27;20062;-78
2021/12/22 07:05:15;;;;;;;32.80;17.40;;;;;;;;;;5098363;28;20089;-78
2021/12/22 07:07:42;;;;;;;30.02;17.05;;;;;;;;;;5097341;28;20442;-76
2021/12/22 07:10:10;;;;;;;30.90;16.83;;;;;;;;;;5118206;27;20134;-77
2021/12/22 07:12:36;;;;;;;28.55;16.95;;;;;;;;;;5094794;28;20086;-77
2021/12/22 07:15:04;;;;;;;30.63;16.73;;;;;;;;;;5116436;27;20473;-77
2021/12/22 07:17:31;;;;;;;31.95;17.48;;;;;;;;;;5133598;27;20042;-77
2021/12/22 07:19:57;;;;;;;32.08;17.17;;;;;;;;;;5126969;27;20082;-79
2021/12/22 07:22:23;;;;;;;29.25;16.75;;;;;;;;;;5087581;28;20126;-77
2021/12/22 07:24:49;;;;;;;30.05;16.60;;;;;;;;;;5107352;27;20051;-78
2021/12/22 07:27:16;;;;;;;30.25;17.27;;;;;;;;;;5124943;27;20050;-77
2021/12/22 07:29:42;;;;;;;31.15;17.23;;;;;;;;;;5124249;27;20045;-78
2021/12/22 07:32:08;;;;;;;31.83;17.60;;;;;;;;;;5110753;28;20114;-78
2021/12/22 07:34:38;;;;;;;36.47;18.05;;;;;;;;;;5133130;27;20387;-77
2021/12/22 07:37:09;;;;;;;36.17;18.17;;;;;;;;;;5121987;27;20031;-78
2021/12/22 07:39:36;;;;;;;31.52;17.17;;;;;;;;;;5115361;28;20473;-79
2021/12/22 07:42:02;;;;;;;39.58;18.50;;;;;;;;;;5119543;27;20076;-79
2021/12/22 07:44:28;;;;;;;34.17;17.58;;;;;;;;;;5107266;28;20086;-79
2021/12/22 07:46:54;;;;;;;32.78;17.60;;;;;;;;;;5112829;28;20079;-78
2021/12/22 07:49:20;;;;;;;32.60;17.10;;;;;;;;;;5104942;28;20047;-77
2021/12/22 07:51:46;;;;;;;36.00;17.52;;;;;;;;;;5094261;28;20051;-76
2021/12/22 07:54:12;;;;;;;32.97;16.92;;;;;;;;;;5093431;28;20090;-79
2021/12/22 07:56:38;;;;;;;32.72;17.17;;;;;;;;;;5094438;28;20051;-77
2021/12/22 07:59:05;;;;;;;33.35;17.25;;;;;;;;;;5112946;28;20044;-77
2021/12/22 08:01:32;;;;;;;41.95;18.30;;;;;;;;;;5112745;28;20051;-77
2021/12/22 08:03:59;;;;;;;36.30;17.73;;;;;;;;;;5112606;28;20496;-77
2021/12/22 08:06:25;;;;;;;35.72;18.17;;;;;;;;;;5112834;28;20039;-77
2021/12/22 08:08:51;;;;;;;32.20;17.40;;;;;;;;;;5094597;28;20126;-79
2021/12/22 08:11:17;;;;;;;35.05;18.50;;;;;;;;;;5112667;28;20498;-78
2021/12/22 08:13:43;;;;;;;35.20;18.27;;;;;;;;;;5094601;28;20048;-76
2021/12/22 08:16:10;;;;;;;34.15;18.88;;;;;;;;;;5094855;28;20493;-77
2021/12/22 08:18:36;;;;;;;32.75;17.88;;;;;;;;;;5112610;28;20085;-76
2021/12/22 08:21:02;;;;;;;34.58;18.33;;;;;;;;;;5112361;28;20152;-78
2021/12/22 08:23:28;;;;;;;33.92;19.00;;;;;;;;;;5115342;28;20131;-78
2021/12/22 08:25:55;;;;;;;35.35;19.92;;;;;;;;;;5116513;28;20082;-77
2021/12/22 08:28:21;;;;;;;37.42;20.15;;;;;;;;;;5116818;28;20473;-78
2021/12/22 08:30:47;;;;;;;38.58;19.67;;;;;;;;;;5098738;28;20046;-77
2021/12/22 08:33:20;;;;;;;38.10;20.60;;;;;;;;;;5098153;28;20524;-78
2021/12/22 08:38:50;;;;;;;36.47;18.77;;;;;;;;;;5116303;28;20044;-78
2021/12/22 08:41:19;;;;;;;34.67;18.20;;;;;;;;;;5116422;28;20051;-77
2021/12/22 08:43:45;;;;;;;36.50;19.08;;;;;;;;;;5098229;28;20430;-79
2021/12/22 08:46:12;;;;;;;38.25;19.50;;;;;;;;;;5081197;28;20048;-76
2021/12/22 08:48:38;;;;;;;32.28;18.70;;;;;;;;;;5116164;28;20043;-79
2021/12/22 08:51:04;;;;;;;36.97;19.15;;;;;;;;;;5116137;28;20156;-80
2021/12/22 08:53:30;;;;;;;36.22;19.30;;;;;;;;;;5116018;28;20543;-79
2021/12/22 08:55:56;;;;;;;35.38;19.35;;;;;;;;;;5116284;28;20544;-80
2021/12/22 08:58:22;;;;;;;35.97;19.08;;;;;;;;;;5116137;28;20043;-78
2021/12/22 09:00:48;;;;;;;34.13;19.50;;;;;;;;;;5098047;28;20492;-76
2021/12/22 09:03:14;;;;;;;32.65;19.15;;;;;;;;;;5097849;28;20387;-79
2021/12/22 09:05:41;;;;;;;38.25;19.58;;;;;;;;;;5097939;28;20044;-77
2021/12/22 09:08:07;;;;;;;39.22;21.98;;;;;;;;;;5116050;28;20093;-80
2021/12/22 09:10:33;;;;;;;37.78;20.27;;;;;;;;;;5115962;28;20047;-79
2021/12/22 09:12:59;;;;;;;38.80;19.55;;;;;;;;;;5115864;28;20055;-78
2021/12/22 09:15:25;;;;;;;37.03;20.10;;;;;;;;;;5115747;28;20098;-79
2021/12/22 09:17:51;;;;;;;37.47;20.00;;;;;;;;;;5115560;28;20074;-79
2021/12/22 09:20:17;;;;;;;37.40;20.77;;;;;;;;;;5115841;28;20044;-79
2021/12/22 09:22:44;;;;;;;36.75;20.85;;;;;;;;;;5115226;28;20044;-78
2021/12/22 09:25:10;;;;;;;38.20;20.60;;;;;;;;;;5115624;28;20126;-79
2021/12/22 09:27:36;;;;;;;38.92;20.60;;;;;;;;;;5115614;28;20138;-78
2021/12/22 09:30:04;;;;;;;37.70;20.52;;;;;;;;;;5097504;28;20579;-79
2021/12/22 09:32:30;;;;;;;39.53;20.00;;;;;;;;;;5097059;28;20048;-77
2021/12/22 09:34:56;;;;;;;41.55;21.35;;;;;;;;;;5115134;28;20046;-77
2021/12/22 09:37:22;;;;;;;42.65;22.27;;;;;;;;;;5097495;28;20085;-78
2021/12/22 09:39:49;;;;;;;42.40;21.45;;;;;;;;;;5115322;28;20050;-80
2021/12/22 09:42:16;;;;;;;43.53;21.23;;;;;;;;;;5115224;28;20048;-79
2021/12/22 09:44:46;;;;;;;43.97;22.25;;;;;;;;;;5096974;28;20366;-81
2021/12/22 09:47:13;;;;;;;42.55;22.92;;;;;;;;;;5115008;28;20501;-79
2021/12/22 09:52:20;;;;;;;40.95;22.48;;;;;;;;;;5115173;28;20040;-77
2021/12/22 09:54:47;;;;;;;46.30;23.50;;;;;;;;;;5096665;28;20501;-79
2021/12/22 09:57:15;;;;;;;49.75;24.20;;;;;;;;;;5114904;28;20046;-77
2021/12/22 09:59:41;;;;;;;49.47;23.33;;;;;;;;;;5114670;28;20092;-81
2021/12/22 10:02:07;;;;;;;44.80;22.55;;;;;;;;;;5114850;28;20469;-78
2021/12/22 10:04:33;;;;;;;45.13;24.33;;;;;;;;;;5114847;28;20035;-78
2021/12/22 10:06:59;;;;;;;41.97;22.33;;;;;;;;;;5114815;28;20389;-78
2021/12/22 10:09:25;;;;;;;46.00;24.52;;;;;;;;;;5114651;28;20043;-78
2021/12/22 10:11:52;;;;;;;43.78;22.17;;;;;;;;;;5079640;28;20042;-78
2021/12/22 10:14:26;;;;;;;46.15;23.13;;;;;;;;;;5114689;28;20460;-80
2021/12/22 10:16:53;;;;;;;40.08;21.90;;;;;;;;;;5096522;28;20038;-78
2021/12/22 10:19:20;;;;;;;39.10;22.10;;;;;;;;;;5114685;28;20093;-78
2021/12/22 10:21:58;;;;;;;36.72;20.58;;;;;;;;;;5114237;28;20062;-79
2021/12/22 10:24:37;;;;;;;41.50;21.70;;;;;;;;;;5114108;28;20089;-80
2021/12/22 10:27:11;;;;;;;48.78;25.60;;;;;;;;;;5114425;28;20532;-77
2021/12/22 10:29:37;;;;;;;40.70;24.40;;;;;;;;;;5115261;27;20043;-79
2021/12/22 10:32:08;;;;;;;37.05;21.08;;;;;;;;;;5114318;28;20075;-80
2021/12/22 10:34:34;;;;;;;40.28;21.75;;;;;;;;;;5114140;27;20476;-79
2021/12/22 10:37:00;;;;;;;44.03;23.27;;;;;;;;;;5114173;28;20512;-80
2021/12/22 10:39:30;;;;;;;36.45;21.88;;;;;;;;;;5114139;28;20055;-80
2021/12/22 10:42:06;;;;;;;36.17;20.95;;;;;;;;;;5114477;27;20232;-79
2021/12/22 10:44:36;;;;;;;36.90;20.90;;;;;;;;;;5113702;28;20440;-77
2021/12/22 10:47:23;;;;;;;38.83;21.08;;;;;;;;;;5114909;27;20050;-78
2021/12/22 10:50:03;;;;;;;36.10;20.25;;;;;;;;;;5114011;28;20040;-77
2021/12/22 10:52:31;;;;;;;37.08;21.35;;;;;;;;;;5113948;28;20092;-76
2021/12/22 10:55:11;;;;;;;36.67;20.85;;;;;;;;;;5114066;27;20439;-77
2021/12/22 10:57:38;;;;;;;32.40;19.15;;;;;;;;;;5095600;28;20054;-80
2021/12/22 11:00:14;;;;;;;35.97;19.48;;;;;;;;;;5095501;28;20044;-80
2021/12/22 11:02:44;;;;;;;33.10;19.98;;;;;;;;;;5113951;28;20043;-78
2021/12/22 11:05:29;;;;;;;33.80;20.30;;;;;;;;;;5095506;28;20039;-80
2021/12/22 11:07:55;;;;;;;35.35;19.48;;;;;;;;;;5097614;27;20047;-81
2021/12/22 11:10:26;;;;;;;34.72;19.60;;;;;;;;;;5110752;28;20044;-77
2021/12/22 11:13:02;;;;;;;31.58;17.65;;;;;;;;;;5114513;27;20098;-77
2021/12/22 11:15:28;;;;;;;33.55;19.25;;;;;;;;;;5113359;28;20055;-79
2021/12/22 11:17:55;;;;;;;30.80;18.90;;;;;;;;;;5113861;27;20481;-81
2021/12/22 11:20:25;;;;;;;30.60;18.80;;;;;;;;;;5130306;27;20100;-79
2021/12/22 11:23:01;;;;;;;32.10;19.05;;;;;;;;;;5095068;28;20051;-80
2021/12/22 11:25:29;;;;;;;31.17;17.92;;;;;;;;;;5113511;28;20047;-78
2021/12/22 11:27:55;;;;;;;31.27;19.20;;;;;;;;;;5113283;28;20262;-77
2021/12/22 11:30:23;;;;;;;29.38;17.70;;;;;;;;;;5113009;28;20138;-79
2021/12/22 11:32:49;;;;;;;30.35;18.48;;;;;;;;;;5094934;28;20495;-80
2021/12/22 11:35:16;;;;;;;30.95;17.77;;;;;;;;;;5078026;28;20039;-80
2021/12/22 11:37:42;;;;;;;34.20;19.77;;;;;;;;;;5094862;28;20126;-78
2021/12/22 11:40:10;;;;;;;31.20;17.80;;;;;;;;;;5113173;28;20035;-79
2021/12/22 11:42:40;;;;;;;33.13;17.88;;;;;;;;;;5113039;28;20047;-80
2021/12/22 11:45:09;;;;;;;33.10;18.80;;;;;;;;;;5112974;28;20053;-80
2021/12/22 11:47:43;;;;;;;33.70;18.23;;;;;;;;;;5113043;28;20071;-77
2021/12/22 11:50:20;;;;;;;30.55;17.67;;;;;;;;;;5112747;28;20104;-79
2021/12/22 11:53:00;;;;;;;28.95;17.85;;;;;;;;;;5112955;28;20075;-80
2021/12/22 11:55:28;;;;;;;27.63;17.50;;;;;;;;;;5094824;28;20047;-79
2021/12/22 11:58:13;;;;;;;29.75;18.23;;;;;;;;;;5116459;28;20481;-79
2021/12/22 12:00:40;;;;;;;29.15;17.38;;;;;;;;;;5121912;27;20038;-79
2021/12/22 12:03:26;;;;;;;36.88;18.90;;;;;;;;;;5119336;27;20040;-79
2021/12/22 12:06:02;;;;;;;32.22;18.27;;;;;;;;;;5117517;27;20040;-78
2021/12/22 12:08:33;;;;;;;29.65;17.35;;;;;;;;;;5118046;28;20035;-83
2021/12/22 12:11:00;;;;;;;28.02;16.10;;;;;;;;;;5098832;28;20083;-79
2021/12/22 12:13:37;;;;;;;29.70;17.38;;;;;;;;;;5116753;28;20611;-78
2021/12/22 12:21:56;;;;;;;26.85;15.80;;;;;;;;;;5111983;27;20114;-78
2021/12/22 12:24:32;;;;;;;31.90;16.80;;;;;;;;;;5137253;27;20039;-78
2021/12/22 12:26:59;;;;;;;44.58;22.95;;;;;;;;;;5121414;27;20075;-79
2021/12/22 12:29:44;;;;;;;32.78;18.63;;;;;;;;;;5116512;28;20047;-78
2021/12/22 12:32:30;;;;;;;33.35;19.63;;;;;;;;;;5116962;27;20130;-79
2021/12/22 12:35:15;;;;;;;33.08;18.10;;;;;;;;;;5097844;28;20047;-78
2021/12/22 12:38:00;;;;;;;35.25;18.98;;;;;;;;;;5118366;27;20118;-81
2021/12/22 12:40:46;;;;;;;47.88;26.13;;;;;;;;;;5100624;27;20078;-81
2021/12/22 12:43:12;;;;;;;27.33;16.92;;;;;;;;;;5116303;28;20400;-78
2021/12/22 12:45:42;;;;;;;27.08;16.75;;;;;;;;;;5117286;27;20458;-78
2021/12/22 12:48:27;;;;;;;37.10;21.17;;;;;;;;;;5136844;27;20047;-80
2021/12/22 12:51:15;;;;;;;28.90;16.45;;;;;;;;;;5114331;28;20040;-77
2021/12/22 12:53:42;;;;;;;27.48;17.38;;;;;;;;;;5115981;28;20507;-80
2021/12/22 12:56:09;;;;;;;31.80;17.83;;;;;;;;;;5116313;27;20039;-80
2021/12/22 12:58:35;;;;;;;27.23;16.40;;;;;;;;;;5116134;28;20185;-77
2021/12/22 13:01:02;;;;;;;28.05;16.10;;;;;;;;;;5119909;27;20110;-77
2021/12/22 13:03:28;;;;;;;26.85;16.95;;;;;;;;;;5136198;27;20050;-78
2021/12/22 13:05:54;;;;;;;28.95;17.65;;;;;;;;;;5136432;27;20051;-79
2021/12/22 13:08:20;;;;;;;28.40;16.77;;;;;;;;;;5135761;27;20043;-79
2021/12/22 13:10:51;;;;;;;25.13;16.17;;;;;;;;;;5136525;27;20062;-78
2021/12/22 13:13:30;;;;;;;26.08;16.52;;;;;;;;;;5136062;27;20047;-77
2021/12/22 13:15:56;;;;;;;28.85;16.60;;;;;;;;;;5136517;27;20089;-78
2021/12/22 13:18:28;;;;;;;25.65;16.35;;;;;;;;;;5136210;27;20054;-79
2021/12/22 13:20:56;;;;;;;24.13;15.55;;;;;;;;;;5136200;27;20059;-77
2021/12/22 13:23:23;;;;;;;25.13;16.35;;;;;;;;;;5136008;27;20039;-77
2021/12/22 13:25:53;;;;;;;27.02;16.98;;;;;;;;;;5136023;27;20122;-77
2021/12/22 13:28:21;;;;;;;28.02;16.77;;;;;;;;;;5118153;27;20538;-78
2021/12/22 13:30:52;;;;;;;29.25;17.25;;;;;;;;;;5117981;27;20051;-77
2021/12/22 13:33:19;;;;;;;31.60;17.02;;;;;;;;;;5136006;27;20035;-77
2021/12/22 13:35:45;;;;;;;30.55;17.92;;;;;;;;;;5135803;27;20039;-78
2021/12/22 13:38:17;;;;;;;28.98;16.90;;;;;;;;;;5117378;27;20038;-77
2021/12/22 13:40:43;;;;;;;;;;;;;;;;;;5136185;27;20039;-78
2021/12/22 13:43:24;;;;;;;26.10;15.45;;;;;;;;;;5135756;27;19915;-78
2021/12/22 13:45:50;;;;;;;;;;;;;;;;;;5136088;27;20047;-77
2021/12/22 13:48:20;;;;;;;25.00;16.20;;;;;;;;;;5135670;27;20279;-78
2021/12/22 13:50:47;;;;;;;25.70;15.82;;;;;;;;;;5135555;27;20549;-77
2021/12/22 13:53:15;;;;;;;26.15;17.00;;;;;;;;;;5117428;27;20086;-78
2021/12/22 13:55:41;;;;;;;22.23;15.30;;;;;;;;;;5117278;27;20580;-77
2021/12/22 13:58:26;;;;;;;26.85;16.65;;;;;;;;;;5117356;27;20078;-77
2021/12/22 14:01:09;;;;;;;25.00;16.75;;;;;;;;;;5135404;27;20043;-77
2021/12/22 14:03:35;;;;;;;25.35;15.95;;;;;;;;;;5116905;27;20039;-77
2021/12/22 14:06:06;;;;;;;26.48;16.02;;;;;;;;;;5117293;27;20536;-78
2021/12/22 14:08:33;;;;;;;25.75;15.30;;;;;;;;;;5135330;27;20046;-79
2021/12/22 14:10:59;;;;;;;23.15;15.23;;;;;;;;;;5135250;27;20065;-79
2021/12/22 14:13:28;;;;;;;24.60;15.77;;;;;;;;;;5099544;27;20543;-79
2021/12/22 14:15:54;;;;;;;28.05;16.50;;;;;;;;;;5116590;27;20034;-76
2021/12/22 14:18:21;;;;;;;29.45;19.50;;;;;;;;;;5135187;27;20039;-78
2021/12/22 14:20:47;;;;;;;30.80;17.58;;;;;;;;;;5133432;27;20369;-78
2021/12/22 14:23:13;;;;;;;26.83;17.05;;;;;;;;;;5116621;27;20055;-77
2021/12/22 14:25:40;;;;;;;25.25;16.73;;;;;;;;;;5135043;27;20064;-79
2021/12/22 14:28:17;;;;;;;24.73;16.30;;;;;;;;;;5116379;27;20050;-79
2021/12/22 14:30:43;;;;;;;25.08;15.48;;;;;;;;;;5134704;27;20475;-79
2021/12/22 14:33:10;;;;;;;28.50;16.88;;;;;;;;;;5116297;27;20134;-77
2021/12/22 14:35:37;;;;;;;26.05;15.73;;;;;;;;;;5116514;27;20369;-78
2021/12/22 14:38:05;;;;;;;25.20;15.45;;;;;;;;;;5134690;27;20035;-79
2021/12/22 14:40:32;;;;;;;27.00;15.60;;;;;;;;;;5134657;27;20392;-78
2021/12/22 14:43:03;;;;;;;23.98;15.40;;;;;;;;;;5134368;27;20125;-79
2021/12/22 14:45:37;;;;;;;25.40;15.50;;;;;;;;;;5134674;27;20035;-78